sensor_id;sensor_type;location;lat;lon;timestamp;P1;durP1;ratioP1;P2;durP2;ratioP2
20369;SDS011;10344;47.592;9.600;2023-06-10T00:02:09;4.05;;;3.05;;
20369;SDS011;10344;47.592;9.600;2023-06-10T00:04:34;4.70;;;3.60;;
20369;SDS011;10344;47.592;9.600;2023-06-10T00:07:09;3.53;;;3.23;;
20369;SDS011;10344;47.592;9.600;2023-06-10T00:09:35;4.13;;;3.55;;
20369;SDS011;10344;47.592;9.600;2023-06-10T00:12:02;3.80;;;3.50;;
20369;SDS011;10344;47.592;9.600;2023-06-10T00:14:44;3.88;;;3.55;;
20369;SDS011;10344;47.592;9.600;2023-06-10T00:17:10;4.15;;;3.65;;
20369;SDS011;10344;47.592;9.600;2023-06-10T00:19:43;5.47;;;3.50;;
20369;SDS011;10344;47.592;9.600;2023-06-10T00:22:11;4.10;;;3.60;;
20369;SDS011;10344;47.592;9.600;2023-06-10T00:24:37;3.50;;;3.20;;
20369;SDS011;10344;47.592;9.600;2023-06-10T00:27:12;4.03;;;3.40;;
20369;SDS011;10344;47.592;9.600;2023-06-10T00:29:44;4.10;;;3.20;;
20369;SDS011;10344;47.592;9.600;2023-06-10T00:32:17;4.20;;;3.80;;
20369;SDS011;10344;47.592;9.600;2023-06-10T00:34:43;4.10;;;3.53;;
20369;SDS011;10344;47.592;9.600;2023-06-10T00:37:09;3.47;;;3.17;;
20369;SDS011;10344;47.592;9.600;2023-06-10T00:39:36;4.37;;;3.53;;
20369;SDS011;10344;47.592;9.600;2023-06-10T00:42:08;4.03;;;3.65;;
20369;SDS011;10344;47.592;9.600;2023-06-10T00:44:35;4.80;;;3.58;;
20369;SDS011;10344;47.592;9.600;2023-06-10T00:47:08;4.07;;;3.67;;
20369;SDS011;10344;47.592;9.600;2023-06-10T00:49:37;3.90;;;3.50;;
20369;SDS011;10344;47.592;9.600;2023-06-10T00:52:06;4.18;;;3.75;;
20369;SDS011;10344;47.592;9.600;2023-06-10T00:54:36;4.37;;;3.77;;
20369;SDS011;10344;47.592;9.600;2023-06-10T00:57:09;4.65;;;3.70;;
20369;SDS011;10344;47.592;9.600;2023-06-10T00:59:48;4.60;;;3.90;;
20369;SDS011;10344;47.592;9.600;2023-06-10T01:02:23;3.90;;;3.60;;
20369;SDS011;10344;47.592;9.600;2023-06-10T01:04:48;3.83;;;3.50;;
20369;SDS011;10344;47.592;9.600;2023-06-10T01:07:23;5.43;;;3.73;;
20369;SDS011;10344;47.592;9.600;2023-06-10T01:12:39;4.57;;;3.65;;
20369;SDS011;10344;47.592;9.600;2023-06-10T01:15:19;4.57;;;3.88;;
20369;SDS011;10344;47.592;9.600;2023-06-10T01:20:43;5.13;;;4.63;;
20369;SDS011;10344;47.592;9.600;2023-06-10T01:23:13;5.05;;;4.30;;
20369;SDS011;10344;47.592;9.600;2023-06-10T01:25:47;5.20;;;4.60;;
20369;SDS011;10344;47.592;9.600;2023-06-10T01:31:28;4.95;;;4.53;;
20369;SDS011;10344;47.592;9.600;2023-06-10T01:34:09;5.80;;;4.57;;
20369;SDS011;10344;47.592;9.600;2023-06-10T01:36:40;6.53;;;4.95;;
20369;SDS011;10344;47.592;9.600;2023-06-10T01:39:10;6.20;;;5.20;;
20369;SDS011;10344;47.592;9.600;2023-06-10T01:41:39;6.17;;;5.33;;
20369;SDS011;10344;47.592;9.600;2023-06-10T01:44:05;5.18;;;4.68;;
20369;SDS011;10344;47.592;9.600;2023-06-10T01:46:31;5.57;;;4.90;;
20369;SDS011;10344;47.592;9.600;2023-06-10T01:49:02;6.07;;;5.07;;
20369;SDS011;10344;47.592;9.600;2023-06-10T01:58:49;5.93;;;5.32;;
20369;SDS011;10344;47.592;9.600;2023-06-10T02:01:14;5.87;;;5.27;;
20369;SDS011;10344;47.592;9.600;2023-06-10T02:03:42;5.30;;;4.85;;
20369;SDS011;10344;47.592;9.600;2023-06-10T02:06:10;5.13;;;4.60;;
20369;SDS011;10344;47.592;9.600;2023-06-10T02:08:36;5.43;;;4.93;;
20369;SDS011;10344;47.592;9.600;2023-06-10T02:11:06;6.27;;;5.17;;
20369;SDS011;10344;47.592;9.600;2023-06-10T02:28:10;5.37;;;4.87;;
20369;SDS011;10344;47.592;9.600;2023-06-10T02:30:38;4.60;;;4.20;;
20369;SDS011;10344;47.592;9.600;2023-06-10T02:33:05;5.00;;;4.50;;
20369;SDS011;10344;47.592;9.600;2023-06-10T02:35:34;5.18;;;4.47;;
20369;SDS011;10344;47.592;9.600;2023-06-10T02:38:01;4.90;;;4.50;;
20369;SDS011;10344;47.592;9.600;2023-06-10T02:40:27;5.05;;;4.55;;
20369;SDS011;10344;47.592;9.600;2023-06-10T05:36:57;6.60;;;6.00;;
20369;SDS011;10344;47.592;9.600;2023-06-10T05:39:23;7.78;;;6.22;;
20369;SDS011;10344;47.592;9.600;2023-06-10T05:41:50;6.88;;;6.28;;
20369;SDS011;10344;47.592;9.600;2023-06-10T05:44:18;7.72;;;6.90;;
20369;SDS011;10344;47.592;9.600;2023-06-10T05:46:45;7.65;;;6.93;;
20369;SDS011;10344;47.592;9.600;2023-06-10T05:49:17;7.13;;;6.43;;
20369;SDS011;10344;47.592;9.600;2023-06-10T05:51:43;7.33;;;6.63;;
20369;SDS011;10344;47.592;9.600;2023-06-10T05:54:12;6.53;;;5.93;;
20369;SDS011;10344;47.592;9.600;2023-06-10T05:56:39;7.60;;;6.90;;
20369;SDS011;10344;47.592;9.600;2023-06-10T05:59:05;6.45;;;5.82;;
20369;SDS011;10344;47.592;9.600;2023-06-10T06:01:34;6.53;;;5.93;;
20369;SDS011;10344;47.592;9.600;2023-06-10T06:04:00;6.90;;;6.30;;
20369;SDS011;10344;47.592;9.600;2023-06-10T06:06:38;7.25;;;6.55;;
20369;SDS011;10344;47.592;9.600;2023-06-10T06:09:05;6.73;;;6.13;;
20369;SDS011;10344;47.592;9.600;2023-06-10T06:11:34;8.17;;;7.37;;
20369;SDS011;10344;47.592;9.600;2023-06-10T06:14:02;8.55;;;7.50;;
20369;SDS011;10344;47.592;9.600;2023-06-10T06:16:28;9.07;;;8.17;;
20369;SDS011;10344;47.592;9.600;2023-06-10T06:18:53;8.55;;;7.68;;
20369;SDS011;10344;47.592;9.600;2023-06-10T06:21:25;10.02;;;8.52;;
20369;SDS011;10344;47.592;9.600;2023-06-10T06:23:53;10.00;;;9.00;;
20369;SDS011;10344;47.592;9.600;2023-06-10T06:26:22;10.02;;;9.02;;
20369;SDS011;10344;47.592;9.600;2023-06-10T06:28:49;9.90;;;8.70;;
20369;SDS011;10344;47.592;9.600;2023-06-10T06:31:15;9.00;;;8.10;;
20369;SDS011;10344;47.592;9.600;2023-06-10T06:33:43;10.30;;;8.38;;
20369;SDS011;10344;47.592;9.600;2023-06-10T06:36:14;7.95;;;7.13;;
20369;SDS011;10344;47.592;9.600;2023-06-10T06:38:41;7.33;;;6.50;;
20369;SDS011;10344;47.592;9.600;2023-06-10T06:41:07;8.13;;;7.33;;
20369;SDS011;10344;47.592;9.600;2023-06-10T06:43:37;8.37;;;7.57;;
20369;SDS011;10344;47.592;9.600;2023-06-10T06:48:30;7.50;;;6.50;;
20369;SDS011;10344;47.592;9.600;2023-06-10T06:50:56;9.23;;;8.33;;
20369;SDS011;10344;47.592;9.600;2023-06-10T06:53:25;9.57;;;8.57;;
20369;SDS011;10344;47.592;9.600;2023-06-10T07:00:42;9.07;;;7.83;;
20369;SDS011;10344;47.592;9.600;2023-06-10T07:17:51;8.55;;;6.90;;
20369;SDS011;10344;47.592;9.600;2023-06-10T07:20:16;8.40;;;7.60;;
20369;SDS011;10344;47.592;9.600;2023-06-10T07:22:43;9.40;;;7.18;;
20369;SDS011;10344;47.592;9.600;2023-06-10T07:25:08;8.33;;;7.50;;
20369;SDS011;10344;47.592;9.600;2023-06-10T07:27:36;7.90;;;7.10;;
20369;SDS011;10344;47.592;9.600;2023-06-10T07:30:03;8.70;;;7.83;;
20369;SDS011;10344;47.592;9.600;2023-06-10T07:32:31;7.70;;;7.00;;
20369;SDS011;10344;47.592;9.600;2023-06-10T07:34:56;9.23;;;7.30;;
20369;SDS011;10344;47.592;9.600;2023-06-10T07:37:25;8.32;;;7.53;;
20369;SDS011;10344;47.592;9.600;2023-06-10T07:39:56;8.07;;;7.28;;
20369;SDS011;10344;47.592;9.600;2023-06-10T07:42:22;9.93;;;7.32;;
20369;SDS011;10344;47.592;9.600;2023-06-10T07:44:56;9.30;;;7.18;;
20369;SDS011;10344;47.592;9.600;2023-06-10T07:47:22;8.43;;;7.53;;
20369;SDS011;10344;47.592;9.600;2023-06-10T07:49:47;7.88;;;7.07;;
20369;SDS011;10344;47.592;9.600;2023-06-10T07:52:18;9.77;;;7.88;;
20369;SDS011;10344;47.592;9.600;2023-06-10T07:54:43;8.43;;;7.53;;
20369;SDS011;10344;47.592;9.600;2023-06-10T07:57:09;9.67;;;7.77;;
20369;SDS011;10344;47.592;9.600;2023-06-10T07:59:42;8.77;;;7.83;;
20369;SDS011;10344;47.592;9.600;2023-06-10T08:02:09;8.80;;;7.20;;
20369;SDS011;10344;47.592;9.600;2023-06-10T08:04:37;8.13;;;7.10;;
20369;SDS011;10344;47.592;9.600;2023-06-10T08:07:03;7.70;;;6.90;;
20369;SDS011;10344;47.592;9.600;2023-06-10T08:09:33;8.02;;;7.22;;
20369;SDS011;10344;47.592;9.600;2023-06-10T08:12:01;7.85;;;7.05;;
20369;SDS011;10344;47.592;9.600;2023-06-10T08:14:36;9.95;;;8.10;;
20369;SDS011;10344;47.592;9.600;2023-06-10T08:17:04;8.57;;;7.67;;
20369;SDS011;10344;47.592;9.600;2023-06-10T08:19:35;9.13;;;7.60;;
20369;SDS011;10344;47.592;9.600;2023-06-10T08:22:01;10.65;;;8.68;;
20369;SDS011;10344;47.592;9.600;2023-06-10T08:24:29;8.45;;;7.43;;
20369;SDS011;10344;47.592;9.600;2023-06-10T08:29:28;10.10;;;8.35;;
20369;SDS011;10344;47.592;9.600;2023-06-10T08:31:56;9.55;;;8.57;;
20369;SDS011;10344;47.592;9.600;2023-06-10T08:34:30;8.52;;;7.68;;
20369;SDS011;10344;47.592;9.600;2023-06-10T08:36:58;9.13;;;8.23;;
20369;SDS011;10344;47.592;9.600;2023-06-10T08:39:26;9.32;;;8.05;;
20369;SDS011;10344;47.592;9.600;2023-06-10T08:44:32;9.00;;;8.10;;
20369;SDS011;10344;47.592;9.600;2023-06-10T08:47:10;10.18;;;9.10;;
20369;SDS011;10344;47.592;9.600;2023-06-10T08:49:44;9.30;;;8.40;;
20369;SDS011;10344;47.592;9.600;2023-06-10T08:52:20;9.13;;;8.25;;
20369;SDS011;10344;47.592;9.600;2023-06-10T08:57:31;8.55;;;7.57;;
20369;SDS011;10344;47.592;9.600;2023-06-10T08:59:58;8.80;;;7.65;;
20369;SDS011;10344;47.592;9.600;2023-06-10T09:02:25;9.15;;;8.25;;
20369;SDS011;10344;47.592;9.600;2023-06-10T09:04:52;9.27;;;8.38;;
20369;SDS011;10344;47.592;9.600;2023-06-10T09:07:20;9.30;;;8.40;;
20369;SDS011;10344;47.592;9.600;2023-06-10T09:09:55;9.75;;;8.65;;
20369;SDS011;10344;47.592;9.600;2023-06-10T09:12:21;10.13;;;8.95;;
20369;SDS011;10344;47.592;9.600;2023-06-10T09:14:47;9.20;;;8.30;;
20369;SDS011;10344;47.592;9.600;2023-06-10T09:27:04;10.80;;;9.30;;
20369;SDS011;10344;47.592;9.600;2023-06-10T09:30:18;9.25;;;8.32;;
20369;SDS011;10344;47.592;9.600;2023-06-10T09:32:20;10.55;;;9.45;;
20369;SDS011;10344;47.592;9.600;2023-06-10T09:34:46;10.20;;;9.20;;
20369;SDS011;10344;47.592;9.600;2023-06-10T09:37:26;10.32;;;9.00;;
20369;SDS011;10344;47.592;9.600;2023-06-10T09:42:51;11.00;;;9.90;;
20369;SDS011;10344;47.592;9.600;2023-06-10T09:45:30;9.35;;;8.30;;
20369;SDS011;10344;47.592;9.600;2023-06-10T09:47:56;9.80;;;8.73;;
20369;SDS011;10344;47.592;9.600;2023-06-10T09:50:26;9.77;;;8.77;;
20369;SDS011;10344;47.592;9.600;2023-06-10T09:52:51;9.88;;;8.65;;
20369;SDS011;10344;47.592;9.600;2023-06-10T09:55:17;9.87;;;8.87;;
20369;SDS011;10344;47.592;9.600;2023-06-10T09:57:53;10.83;;;9.73;;
20369;SDS011;10344;47.592;9.600;2023-06-10T10:00:22;10.93;;;9.82;;
20369;SDS011;10344;47.592;9.600;2023-06-10T10:02:52;9.60;;;8.60;;
20369;SDS011;10344;47.592;9.600;2023-06-10T10:05:21;9.32;;;8.38;;
20369;SDS011;10344;47.592;9.600;2023-06-10T10:07:47;9.60;;;8.55;;
20369;SDS011;10344;47.592;9.600;2023-06-10T10:10:17;10.50;;;9.50;;
20369;SDS011;10344;47.592;9.600;2023-06-10T10:12:55;9.77;;;8.77;;
20369;SDS011;10344;47.592;9.600;2023-06-10T10:15:23;9.55;;;8.50;;
20369;SDS011;10344;47.592;9.600;2023-06-10T10:18:00;11.15;;;10.07;;
20369;SDS011;10344;47.592;9.600;2023-06-10T10:20:41;11.38;;;10.27;;
20369;SDS011;10344;47.592;9.600;2023-06-10T10:23:53;9.43;;;8.43;;
20369;SDS011;10344;47.592;9.600;2023-06-10T10:26:18;8.75;;;7.90;;
20369;SDS011;10344;47.592;9.600;2023-06-10T10:28:47;9.90;;;8.43;;
20369;SDS011;10344;47.592;9.600;2023-06-10T10:31:33;9.40;;;8.50;;
20369;SDS011;10344;47.592;9.600;2023-06-10T10:34:04;9.37;;;8.47;;
20369;SDS011;10344;47.592;9.600;2023-06-10T10:54:35;9.52;;;8.52;;
20369;SDS011;10344;47.592;9.600;2023-06-10T10:57:18;9.70;;;8.23;;
20369;SDS011;10344;47.592;9.600;2023-06-10T11:02:17;8.67;;;7.77;;
20369;SDS011;10344;47.592;9.600;2023-06-10T11:04:47;8.70;;;7.80;;
20369;SDS011;10344;47.592;9.600;2023-06-10T11:28:40;9.40;;;8.40;;
20369;SDS011;10344;47.592;9.600;2023-06-10T11:31:06;9.85;;;8.25;;
20369;SDS011;10344;47.592;9.600;2023-06-10T11:33:39;8.85;;;7.95;;
20369;SDS011;10344;47.592;9.600;2023-06-10T11:36:12;8.55;;;7.60;;
20369;SDS011;10344;47.592;9.600;2023-06-10T11:38:38;9.75;;;7.65;;
20369;SDS011;10344;47.592;9.600;2023-06-10T11:41:05;7.90;;;7.20;;
20369;SDS011;10344;47.592;9.600;2023-06-10T11:43:37;7.33;;;6.63;;
20369;SDS011;10344;47.592;9.600;2023-06-10T11:46:07;8.57;;;7.68;;
20369;SDS011;10344;47.592;9.600;2023-06-10T11:53:40;8.97;;;8.10;;
20369;SDS011;10344;47.592;9.600;2023-06-10T11:56:05;8.93;;;7.30;;
20369;SDS011;10344;47.592;9.600;2023-06-10T11:58:31;8.20;;;7.40;;
20369;SDS011;10344;47.592;9.600;2023-06-10T12:01:00;7.20;;;6.40;;
20369;SDS011;10344;47.592;9.600;2023-06-10T12:03:26;7.05;;;6.35;;
20369;SDS011;10344;47.592;9.600;2023-06-10T12:06:04;6.25;;;5.65;;
20369;SDS011;10344;47.592;9.600;2023-06-10T12:08:31;7.78;;;6.95;;
20369;SDS011;10344;47.592;9.600;2023-06-10T12:11:06;7.10;;;6.33;;
20369;SDS011;10344;47.592;9.600;2023-06-10T12:13:31;6.95;;;6.15;;
20369;SDS011;10344;47.592;9.600;2023-06-10T12:16:07;7.40;;;6.70;;
20369;SDS011;10344;47.592;9.600;2023-06-10T12:18:39;6.80;;;6.10;;
20369;SDS011;10344;47.592;9.600;2023-06-10T12:21:19;6.75;;;6.05;;
20369;SDS011;10344;47.592;9.600;2023-06-10T12:34:31;6.55;;;5.95;;
20369;SDS011;10344;47.592;9.600;2023-06-10T12:37:01;6.25;;;5.65;;
20369;SDS011;10344;47.592;9.600;2023-06-10T12:39:31;7.00;;;6.30;;
20369;SDS011;10344;47.592;9.600;2023-06-10T12:42:08;7.07;;;5.88;;
20369;SDS011;10344;47.592;9.600;2023-06-10T12:44:39;6.40;;;5.80;;
20369;SDS011;10344;47.592;9.600;2023-06-10T12:47:13;5.57;;;5.03;;
20369;SDS011;10344;47.592;9.600;2023-06-10T12:54:30;5.82;;;5.25;;
20369;SDS011;10344;47.592;9.600;2023-06-10T12:57:02;6.00;;;5.40;;
20369;SDS011;10344;47.592;9.600;2023-06-10T13:04:20;5.40;;;4.90;;
20369;SDS011;10344;47.592;9.600;2023-06-10T13:36:40;5.27;;;4.50;;
20369;SDS011;10344;47.592;9.600;2023-06-10T13:39:06;4.40;;;4.00;;
20369;SDS011;10344;47.592;9.600;2023-06-10T13:41:37;4.65;;;4.25;;
20369;SDS011;10344;47.592;9.600;2023-06-10T13:44:05;4.68;;;4.20;;
20369;SDS011;10344;47.592;9.600;2023-06-10T13:46:31;5.50;;;3.90;;
20369;SDS011;10344;47.592;9.600;2023-06-10T13:49:06;4.30;;;3.90;;
20369;SDS011;10344;47.592;9.600;2023-06-10T13:51:32;4.03;;;3.60;;
20369;SDS011;10344;47.592;9.600;2023-06-10T13:53:57;4.60;;;4.20;;
20369;SDS011;10344;47.592;9.600;2023-06-10T13:56:29;4.70;;;3.85;;
20369;SDS011;10344;47.592;9.600;2023-06-10T13:58:55;4.13;;;3.50;;
20369;SDS011;10344;47.592;9.600;2023-06-10T14:01:21;4.10;;;3.70;;
20369;SDS011;10344;47.592;9.600;2023-06-10T14:03:52;4.53;;;3.40;;
20369;SDS011;10344;47.592;9.600;2023-06-10T14:06:20;3.60;;;3.30;;
20369;SDS011;10344;47.592;9.600;2023-06-10T14:08:52;2.97;;;2.78;;
20369;SDS011;10344;47.592;9.600;2023-06-10T14:11:19;2.80;;;2.60;;
20369;SDS011;10344;47.592;9.600;2023-06-10T14:13:52;4.63;;;4.23;;
20369;SDS011;10344;47.592;9.600;2023-06-10T14:16:17;4.93;;;4.45;;
20369;SDS011;10344;47.592;9.600;2023-06-10T14:18:45;3.90;;;3.50;;
20369;SDS011;10344;47.592;9.600;2023-06-10T14:21:17;5.07;;;3.90;;
20369;SDS011;10344;47.592;9.600;2023-06-10T14:23:42;4.05;;;3.00;;
20369;SDS011;10344;47.592;9.600;2023-06-10T14:26:09;2.60;;;2.40;;
20369;SDS011;10344;47.592;9.600;2023-06-10T14:28:37;2.75;;;2.20;;
20369;SDS011;10344;47.592;9.600;2023-06-10T15:30:20;2.10;;;1.90;;
20369;SDS011;10344;47.592;9.600;2023-06-10T15:32:55;3.45;;;2.92;;
20369;SDS011;10344;47.592;9.600;2023-06-10T17:01:23;3.35;;;2.30;;
20369;SDS011;10344;47.592;9.600;2023-06-10T17:03:51;2.28;;;2.08;;
20369;SDS011;10344;47.592;9.600;2023-06-10T17:06:20;2.50;;;2.28;;
20369;SDS011;10344;47.592;9.600;2023-06-10T17:08:45;2.90;;;2.43;;
20369;SDS011;10344;47.592;9.600;2023-06-10T17:11:11;2.65;;;2.20;;
20369;SDS011;10344;47.592;9.600;2023-06-10T17:13:37;2.40;;;2.20;;
20369;SDS011;10344;47.592;9.600;2023-06-10T17:16:02;2.40;;;2.20;;
20369;SDS011;10344;47.592;9.600;2023-06-10T17:28:14;2.90;;;2.50;;
20369;SDS011;10344;47.592;9.600;2023-06-10T17:30:39;2.80;;;2.30;;
20369;SDS011;10344;47.592;9.600;2023-06-10T17:33:05;2.77;;;2.47;;
20369;SDS011;10344;47.592;9.600;2023-06-10T17:35:31;2.60;;;2.30;;
20369;SDS011;10344;47.592;9.600;2023-06-10T17:37:59;2.80;;;2.60;;
20369;SDS011;10344;47.592;9.600;2023-06-10T17:40:24;3.60;;;2.58;;
20369;SDS011;10344;47.592;9.600;2023-06-10T17:42:51;2.70;;;2.50;;
20369;SDS011;10344;47.592;9.600;2023-06-10T17:45:16;3.05;;;2.50;;
20369;SDS011;10344;47.592;9.600;2023-06-10T20:59:18;3.50;;;3.20;;
20369;SDS011;10344;47.592;9.600;2023-06-10T21:01:43;4.70;;;3.50;;
20369;SDS011;10344;47.592;9.600;2023-06-10T21:04:15;3.40;;;3.10;;
20369;SDS011;10344;47.592;9.600;2023-06-10T21:06:41;3.60;;;3.30;;
20369;SDS011;10344;47.592;9.600;2023-06-10T21:09:07;3.55;;;3.25;;
20369;SDS011;10344;47.592;9.600;2023-06-10T21:11:40;3.77;;;3.33;;
20369;SDS011;10344;47.592;9.600;2023-06-10T21:14:06;4.10;;;3.17;;
20369;SDS011;10344;47.592;9.600;2023-06-10T21:16:31;4.00;;;3.60;;
20369;SDS011;10344;47.592;9.600;2023-06-10T21:18:58;3.63;;;3.33;;
20369;SDS011;10344;47.592;9.600;2023-06-10T21:21:26;3.72;;;3.42;;
20369;SDS011;10344;47.592;9.600;2023-06-10T21:23:52;3.60;;;3.30;;
20369;SDS011;10344;47.592;9.600;2023-06-10T21:26:21;3.50;;;3.20;;
20369;SDS011;10344;47.592;9.600;2023-06-10T21:28:46;3.63;;;3.33;;
20369;SDS011;10344;47.592;9.600;2023-06-10T21:31:12;3.97;;;3.30;;
20369;SDS011;10344;47.592;9.600;2023-06-10T22:10:21;3.80;;;3.50;;
20369;SDS011;10344;47.592;9.600;2023-06-10T22:12:49;3.58;;;3.28;;
20369;SDS011;10344;47.592;9.600;2023-06-10T22:15:17;3.73;;;3.40;;
20369;SDS011;10344;47.592;9.600;2023-06-10T22:17:45;4.38;;;3.97;;
20369;SDS011;10344;47.592;9.600;2023-06-10T22:20:11;4.35;;;3.80;;
20369;SDS011;10344;47.592;9.600;2023-06-10T22:22:42;4.38;;;3.97;;
20369;SDS011;10344;47.592;9.600;2023-06-10T22:25:10;4.95;;;3.70;;
20369;SDS011;10344;47.592;9.600;2023-06-10T22:27:35;4.30;;;3.90;;
20369;SDS011;10344;47.592;9.600;2023-06-10T22:30:01;4.27;;;3.53;;
20369;SDS011;10344;47.592;9.600;2023-06-10T22:32:27;5.27;;;4.23;;
20369;SDS011;10344;47.592;9.600;2023-06-10T22:37:18;4.80;;;4.00;;
20369;SDS011;10344;47.592;9.600;2023-06-10T22:39:45;4.35;;;3.95;;
20369;SDS011;10344;47.592;9.600;2023-06-10T22:42:14;3.97;;;3.60;;
20369;SDS011;10344;47.592;9.600;2023-06-10T22:44:39;4.15;;;3.75;;
20369;SDS011;10344;47.592;9.600;2023-06-10T23:04:12;4.77;;;4.00;;
20369;SDS011;10344;47.592;9.600;2023-06-10T23:06:38;4.70;;;4.20;;
20369;SDS011;10344;47.592;9.600;2023-06-10T23:23:39;4.93;;;4.13;;
20369;SDS011;10344;47.592;9.600;2023-06-10T23:26:16;4.40;;;4.00;;
20369;SDS011;10344;47.592;9.600;2023-06-10T23:28:45;4.43;;;4.03;;
20369;SDS011;10344;47.592;9.600;2023-06-10T23:31:11;4.88;;;4.38;;
20369;SDS011;10344;47.592;9.600;2023-06-10T23:33:47;4.82;;;4.32;;
20369;SDS011;10344;47.592;9.600;2023-06-10T23:36:14;4.47;;;4.00;;
20369;SDS011;10344;47.592;9.600;2023-06-10T23:38:42;5.20;;;4.25;;
20369;SDS011;10344;47.592;9.600;2023-06-10T23:41:10;4.85;;;4.35;;
20369;SDS011;10344;47.592;9.600;2023-06-10T23:43:42;4.40;;;4.00;;
20369;SDS011;10344;47.592;9.600;2023-06-10T23:46:10;4.83;;;3.80;;
20369;SDS011;10344;47.592;9.600;2023-06-10T23:48:36;4.80;;;4.40;;
20369;SDS011;10344;47.592;9.600;2023-06-10T23:51:02;4.70;;;4.22;;
20369;SDS011;10344;47.592;9.600;2023-06-10T23:53:30;4.38;;;3.97;;
20369;SDS011;10344;47.592;9.600;2023-06-10T23:55:57;4.63;;;4.10;;
20369;SDS011;10344;47.592;9.600;2023-06-10T23:58:25;4.10;;;3.70;;
